createdAt,value
2019-03-21T00:00:37.778Z,14.23
2019-03-21T00:03:08.875Z,15.40
2019-03-21T00:05:39.916Z,16.20
2019-03-21T00:08:12.185Z,15.40
2019-03-21T00:11:20.846Z,15.23
2019-03-21T00:13:53.312Z,15.17
2019-03-21T00:16:24.565Z,15.57
2019-03-21T00:18:55.424Z,15.17
2019-03-21T00:21:26.254Z,15.33
2019-03-21T00:23:57.229Z,16.10
2019-03-21T00:26:28.230Z,15.47
2019-03-21T00:28:59.168Z,17.13
2019-03-21T00:31:30.374Z,14.77
2019-03-21T00:34:01.556Z,15.80
2019-03-21T00:36:32.448Z,15.77
2019-03-21T00:39:04.044Z,15.83
2019-03-21T00:41:35.186Z,15.27
2019-03-21T00:44:17.632Z,15.97
2019-03-21T00:46:40.210Z,15.83
2019-03-21T00:49:11.230Z,15.93
2019-03-21T00:51:42.132Z,18.27
2019-03-21T00:54:13.987Z,14.83
2019-03-21T00:56:45.098Z,15.90
2019-03-21T00:59:15.960Z,15.33
2019-03-21T01:01:46.913Z,14.80
2019-03-21T01:04:19.685Z,14.97
2019-03-21T01:06:50.631Z,15.43
2019-03-21T01:09:22.030Z,16.53
2019-03-21T01:11:52.862Z,16.70
2019-03-21T01:14:29.843Z,15.97
2019-03-21T01:16:56.847Z,16.43
2019-03-21T01:19:27.866Z,16.93
2019-03-21T01:21:58.688Z,16.40
2019-03-21T01:24:29.805Z,16.13
2019-03-21T01:27:00.725Z,16.27
2019-03-21T01:29:31.618Z,15.50
2019-03-21T01:32:02.704Z,15.87
2019-03-21T01:34:33.794Z,16.07
2019-03-21T01:37:04.869Z,15.10
2019-03-21T01:39:36.058Z,16.73
2019-03-21T01:42:06.960Z,15.17
2019-03-21T01:44:41.332Z,15.67
2019-03-21T01:47:11.951Z,16.30
2019-03-21T01:49:42.819Z,16.50
2019-03-21T01:52:13.894Z,15.40
2019-03-21T01:54:44.794Z,16.90
2019-03-21T01:57:15.734Z,14.50
2019-03-21T01:59:47.110Z,16.47
2019-03-21T02:02:18.204Z,15.80
2019-03-21T02:04:49.079Z,14.80
2019-03-21T02:07:20.109Z,17.03
2019-03-21T02:09:51.331Z,16.13
2019-03-21T02:12:22.331Z,15.90
2019-03-21T02:14:53.402Z,14.70
2019-03-21T02:17:24.339Z,15.37
2019-03-21T02:19:55.419Z,15.93
2019-03-21T02:22:26.312Z,14.90
2019-03-21T02:24:57.170Z,17.30
2019-03-21T02:27:28.433Z,15.33
2019-03-21T02:29:59.642Z,14.83
2019-03-21T02:32:30.466Z,15.03
2019-03-21T02:35:01.532Z,15.43
2019-03-21T02:37:32.761Z,16.27
2019-03-21T02:40:03.624Z,15.93
2019-03-21T02:42:34.534Z,15.93
2019-03-21T02:45:08.804Z,16.07
2019-03-21T02:47:39.055Z,16.37
2019-03-21T02:50:14.726Z,14.40
2019-03-21T02:52:45.585Z,15.63
2019-03-21T02:55:16.503Z,16.17
2019-03-21T02:57:47.402Z,14.80
2019-03-21T03:00:20.456Z,13.80
2019-03-21T03:02:52.903Z,15.17
2019-03-21T03:05:25.737Z,16.40
2019-03-21T03:07:56.668Z,14.37
2019-03-21T03:10:30.354Z,14.70
2019-03-21T03:13:01.628Z,14.50
2019-03-21T03:15:33.247Z,14.70
2019-03-21T03:18:04.817Z,12.70
2019-03-21T03:20:35.763Z,13.43
2019-03-21T03:23:06.671Z,13.57
2019-03-21T03:25:37.785Z,14.03
2019-03-21T03:28:11.958Z,13.97
2019-03-21T03:30:44.287Z,14.70
2019-03-21T03:33:16.799Z,13.20
2019-03-21T03:35:47.705Z,14.43
2019-03-21T03:38:18.530Z,13.73
2019-03-21T03:40:52.496Z,13.77
2019-03-21T03:43:23.740Z,13.80
2019-03-21T03:45:54.703Z,15.00
2019-03-21T03:48:25.836Z,13.37
2019-03-21T03:50:56.762Z,14.57
2019-03-21T03:53:28.236Z,15.63
2019-03-21T03:55:59.098Z,14.07
2019-03-21T03:58:30.259Z,13.67
2019-03-21T04:01:01.306Z,14.47
2019-03-21T04:03:32.523Z,14.20
2019-03-21T04:06:03.390Z,14.30
2019-03-21T04:08:34.790Z,13.90
2019-03-21T04:11:05.883Z,13.93
2019-03-21T04:13:36.832Z,13.73
2019-03-21T04:16:07.868Z,14.03
2019-03-21T04:18:39.025Z,14.93
2019-03-21T04:21:09.888Z,13.53
2019-03-21T04:23:41.084Z,13.93
2019-03-21T04:26:15.455Z,13.47
2019-03-21T04:28:46.585Z,14.03
2019-03-21T04:31:17.905Z,14.20
2019-03-21T04:33:49.072Z,13.77
2019-03-21T04:36:20.079Z,13.57
2019-03-21T04:38:51.241Z,14.17
2019-03-21T04:41:22.505Z,15.20
2019-03-21T04:43:53.504Z,13.37
2019-03-21T04:46:24.801Z,14.97
2019-03-21T04:48:55.583Z,14.43
2019-03-21T04:51:26.442Z,14.40
2019-03-21T04:53:57.542Z,13.63
2019-03-21T04:56:29.332Z,13.10
2019-03-21T04:59:00.172Z,13.50
2019-03-21T05:01:31.282Z,15.07
2019-03-21T05:04:02.250Z,14.33
2019-03-21T05:06:33.319Z,14.17
2019-03-21T05:09:06.093Z,13.63
2019-03-21T05:11:37.477Z,13.47
2019-03-21T05:14:08.295Z,13.80
2019-03-21T05:16:39.418Z,14.90
2019-03-21T05:19:10.629Z,14.93
2019-03-21T05:21:41.480Z,15.57
2019-03-21T05:24:12.362Z,15.20
2019-03-21T05:26:43.386Z,14.00
2019-03-21T05:29:14.457Z,14.20
2019-03-21T05:31:46.466Z,14.87
2019-03-21T05:34:17.274Z,16.07
2019-03-21T05:36:50.447Z,14.80
2019-03-21T05:39:21.326Z,14.93
2019-03-21T05:41:52.146Z,15.47
2019-03-21T05:44:36.811Z,14.87
2019-03-21T05:47:07.962Z,14.43
2019-03-21T05:49:38.837Z,15.53
2019-03-21T05:52:10.952Z,15.93
2019-03-21T05:54:41.864Z,15.93
2019-03-21T05:57:12.724Z,15.80
2019-03-21T05:59:43.645Z,16.97
2019-03-21T06:02:14.532Z,14.27
2019-03-21T06:04:45.599Z,13.90
2019-03-21T06:07:37.144Z,14.93
2019-03-21T06:10:10.502Z,13.73
2019-03-21T06:12:43.252Z,14.23
2019-03-21T06:15:16.087Z,15.27
2019-03-21T06:17:53.586Z,14.33
2019-03-21T06:20:35.989Z,14.83
2019-03-21T06:23:59.094Z,15.20
2019-03-21T06:27:14.102Z,13.87
2019-03-21T06:29:37.934Z,14.90
2019-03-21T06:32:08.888Z,15.43
2019-03-21T06:34:39.778Z,14.77
2019-03-21T06:37:11.024Z,15.83
2019-03-21T06:39:41.920Z,16.47
2019-03-21T06:42:12.771Z,14.53
2019-03-21T06:44:43.888Z,14.67
2019-03-21T06:47:14.993Z,14.43
2019-03-21T06:49:46.645Z,14.50
2019-03-21T06:52:17.781Z,16.50
2019-03-21T06:54:48.868Z,14.37
2019-03-21T06:57:19.761Z,15.50
2019-03-21T06:59:50.775Z,15.27
2019-03-21T07:02:21.929Z,16.67
2019-03-21T07:04:52.901Z,17.53
2019-03-21T07:07:24.032Z,17.57
2019-03-21T07:09:55.053Z,17.33
2019-03-21T07:12:27.359Z,16.57
2019-03-21T07:14:58.486Z,17.40
2019-03-21T07:17:29.473Z,16.47
2019-03-21T07:20:00.757Z,18.27
2019-03-21T07:22:31.963Z,19.30
2019-03-21T07:25:02.933Z,22.20
2019-03-21T07:27:34.014Z,19.40
2019-03-21T07:30:06.198Z,19.70
2019-03-21T07:32:37.064Z,18.73
2019-03-21T07:35:08.576Z,19.27
2019-03-21T07:37:39.443Z,18.27
2019-03-21T07:40:11.601Z,17.67
2019-03-21T07:42:42.824Z,17.67
2019-03-21T07:45:14.190Z,18.07
2019-03-21T07:47:45.287Z,19.43
2019-03-21T07:50:16.719Z,18.50
2019-03-21T07:52:47.679Z,20.37
2019-03-21T07:55:18.555Z,18.67
2019-03-21T07:57:49.901Z,17.43
2019-03-21T08:00:20.939Z,17.87
2019-03-21T08:02:52.107Z,19.57
2019-03-21T08:05:23.311Z,18.20
2019-03-21T08:07:54.229Z,19.00
2019-03-21T08:10:25.152Z,20.27
2019-03-21T08:12:56.035Z,19.43
2019-03-21T08:15:27.099Z,16.93
2019-03-21T08:17:58.435Z,18.57
2019-03-21T08:20:29.379Z,17.47
2019-03-21T08:23:00.251Z,18.90
2019-03-21T08:25:31.514Z,18.97
2019-03-21T08:28:02.506Z,19.20
2019-03-21T08:30:35.700Z,17.97
2019-03-21T08:33:07.188Z,19.77
2019-03-21T08:35:38.432Z,21.33
2019-03-21T08:38:09.465Z,19.90
2019-03-21T08:40:42.598Z,20.43
2019-03-21T08:43:13.151Z,18.87
2019-03-21T08:45:44.172Z,19.63
2019-03-21T08:48:15.209Z,19.73
2019-03-21T08:50:46.102Z,20.40
2019-03-21T08:53:17.082Z,19.93
2019-03-21T08:55:48.211Z,20.93
2019-03-21T08:58:19.139Z,21.63
2019-03-21T09:00:50.433Z,21.03
2019-03-21T09:03:21.502Z,20.63
2019-03-21T09:05:52.419Z,21.37
2019-03-21T09:08:23.417Z,21.27
2019-03-21T09:10:54.604Z,21.53
2019-03-21T09:13:25.459Z,23.67
2019-03-21T09:15:56.359Z,22.33
2019-03-21T09:18:27.587Z,21.47
2019-03-21T09:20:58.507Z,21.50
2019-03-21T09:23:29.497Z,19.80
2019-03-21T09:26:00.786Z,21.97
2019-03-21T09:28:31.914Z,22.17
2019-03-21T09:31:02.789Z,23.33
2019-03-21T09:33:34.016Z,21.27
2019-03-21T09:36:05.113Z,23.07
2019-03-21T09:38:36.024Z,21.50
2019-03-21T09:41:07.244Z,23.97
2019-03-21T09:43:38.595Z,25.27
2019-03-21T09:46:09.632Z,26.10
2019-03-21T09:48:40.599Z,24.00
2019-03-21T09:51:11.438Z,23.83
2019-03-21T09:53:42.427Z,24.57
2019-03-21T09:56:13.459Z,24.30
2019-03-21T09:58:44.494Z,25.27
2019-03-21T10:01:15.479Z,23.00
2019-03-21T10:03:47.016Z,23.23
2019-03-21T10:06:18.079Z,28.27
2019-03-21T10:08:49.249Z,21.90
2019-03-21T10:11:20.507Z,23.43
2019-03-21T10:13:52.520Z,19.93
2019-03-21T10:16:23.575Z,22.33
2019-03-21T10:18:54.705Z,24.17
2019-03-21T10:21:25.941Z,23.37
2019-03-21T10:23:57.140Z,25.13
2019-03-21T10:26:27.960Z,25.60
2019-03-21T10:28:59.020Z,23.73
2019-03-21T10:31:30.168Z,19.93
2019-03-21T10:34:01.024Z,22.83
2019-03-21T10:36:31.987Z,22.20
2019-03-21T10:39:04.112Z,24.10
2019-03-21T10:41:34.936Z,23.50
2019-03-21T10:44:06.046Z,21.77
2019-03-21T10:46:37.131Z,22.43
2019-03-21T10:49:08.295Z,21.17
2019-03-21T10:51:39.573Z,23.90
2019-03-21T10:54:10.523Z,21.67
2019-03-21T10:56:41.355Z,20.90
2019-03-21T10:59:12.325Z,23.27
2019-03-21T11:01:43.143Z,24.70
2019-03-21T11:04:14.038Z,19.00
2019-03-21T11:06:45.186Z,20.17
2019-03-21T11:09:16.272Z,20.67
2019-03-21T11:11:47.095Z,19.70
2019-03-21T11:14:18.086Z,20.57
2019-03-21T11:16:49.342Z,21.17
2019-03-21T11:19:20.356Z,20.93
2019-03-21T11:21:51.599Z,21.17
2019-03-21T11:24:22.435Z,20.87
2019-03-21T11:26:53.741Z,21.00
2019-03-21T11:29:24.755Z,24.03
2019-03-21T11:31:55.636Z,23.77
2019-03-21T11:34:26.795Z,20.57
2019-03-21T11:36:58.062Z,19.97
2019-03-21T11:39:28.991Z,20.20
2019-03-21T11:42:00.263Z,20.57
2019-03-21T11:44:31.405Z,20.00
2019-03-21T11:47:02.488Z,19.53
2019-03-21T11:49:34.620Z,18.93
2019-03-21T11:52:17.550Z,18.60
2019-03-21T11:54:38.454Z,18.13
2019-03-21T11:57:09.575Z,18.50
2019-03-21T11:59:51.122Z,16.73
2019-03-21T12:02:13.579Z,19.13
2019-03-21T12:04:44.557Z,17.53
2019-03-21T12:07:15.463Z,17.70
2019-03-21T12:09:46.562Z,19.97
2019-03-21T12:12:17.603Z,15.87
2019-03-21T12:14:48.427Z,18.23
2019-03-21T12:17:19.379Z,17.30
2019-03-21T12:19:50.565Z,17.80
2019-03-21T12:22:30.037Z,17.43
2019-03-21T12:24:54.090Z,16.60
2019-03-21T12:27:25.256Z,14.30
2019-03-21T12:29:56.546Z,13.80
2019-03-21T12:32:27.853Z,14.60
2019-03-21T12:34:58.792Z,16.30
2019-03-21T12:37:29.783Z,17.13
2019-03-21T12:40:00.798Z,15.50
2019-03-21T12:42:31.689Z,15.37
2019-03-21T12:45:02.616Z,14.60
2019-03-21T12:47:34.978Z,12.33
2019-03-21T12:50:07.735Z,12.60
2019-03-21T12:52:41.572Z,13.33
2019-03-21T12:55:11.582Z,12.67
2019-03-21T12:57:42.675Z,13.67
2019-03-21T13:00:13.877Z,12.73
2019-03-21T13:02:45.133Z,12.97
2019-03-21T13:05:22.613Z,13.37
2019-03-21T13:07:54.077Z,14.10
2019-03-21T13:10:25.211Z,14.17
2019-03-21T13:12:56.293Z,14.60
2019-03-21T13:15:30.176Z,13.53
2019-03-21T13:18:00.729Z,12.07
2019-03-21T13:20:31.934Z,14.30
2019-03-21T13:23:03.074Z,12.80
2019-03-21T13:25:34.237Z,12.80
2019-03-21T13:28:05.787Z,13.13
2019-03-21T13:30:37.285Z,13.23
2019-03-21T13:33:08.574Z,12.60
2019-03-21T13:35:39.415Z,13.27
2019-03-21T13:38:10.304Z,12.83
2019-03-21T13:40:41.571Z,12.57
2019-03-21T13:43:12.564Z,13.00
2019-03-21T13:45:43.491Z,13.20
2019-03-21T13:48:14.574Z,13.80
2019-03-21T13:50:45.429Z,12.73
2019-03-21T13:53:19.061Z,14.50
2019-03-21T13:55:49.267Z,12.40
2019-03-21T13:58:20.421Z,12.00
2019-03-21T14:00:51.313Z,12.93
2019-03-21T14:03:25.417Z,12.20
2019-03-21T14:05:55.507Z,14.10
2019-03-21T14:08:26.656Z,13.63
2019-03-21T14:10:57.650Z,12.40
2019-03-21T14:13:28.519Z,13.57
2019-03-21T14:15:59.643Z,13.47
2019-03-21T14:18:30.898Z,11.90
2019-03-21T14:21:01.708Z,12.10
2019-03-21T14:23:42.681Z,15.47
2019-03-21T14:26:05.613Z,13.53
2019-03-21T14:28:36.594Z,11.00
2019-03-21T14:31:07.569Z,11.57
2019-03-21T14:33:39.122Z,11.07
2019-03-21T14:36:09.949Z,12.53
2019-03-21T14:38:41.142Z,12.97
2019-03-21T14:41:12.061Z,12.70
2019-03-21T14:43:43.159Z,11.07
2019-03-21T14:46:14.232Z,11.40
2019-03-21T14:48:45.139Z,13.17
2019-03-21T14:51:16.214Z,14.37
2019-03-21T14:53:47.171Z,14.63
2019-03-21T14:56:17.971Z,11.30
2019-03-21T14:58:48.860Z,14.83
2019-03-21T15:01:20.123Z,20.13
2019-03-21T15:03:51.283Z,15.57
2019-03-21T15:06:22.280Z,14.40
2019-03-21T15:08:53.299Z,18.00
2019-03-21T15:11:24.452Z,12.03
2019-03-21T15:13:56.034Z,13.23
2019-03-21T15:16:26.965Z,12.43
2019-03-21T15:18:58.306Z,14.07
2019-03-21T15:21:29.387Z,16.07
2019-03-21T15:24:00.673Z,12.77
2019-03-21T15:26:31.596Z,14.27
2019-03-21T15:29:02.809Z,13.83
2019-03-21T15:31:33.949Z,13.43
2019-03-21T15:34:04.848Z,13.27
2019-03-21T15:36:36.097Z,14.57
2019-03-21T15:39:09.480Z,13.67
2019-03-21T15:41:40.531Z,14.97
2019-03-21T15:44:11.465Z,13.80
2019-03-21T15:46:42.286Z,12.93
2019-03-21T15:49:13.611Z,13.83
2019-03-21T15:51:44.656Z,12.10
2019-03-21T15:54:15.726Z,13.77
2019-03-21T15:56:47.052Z,12.13
2019-03-21T15:59:19.179Z,12.03
2019-03-21T16:01:50.125Z,13.10
2019-03-21T16:04:21.372Z,11.97
2019-03-21T16:06:52.292Z,13.70
2019-03-21T16:09:23.559Z,13.17
2019-03-21T16:11:54.585Z,13.10
2019-03-21T16:14:26.752Z,13.03
2019-03-21T16:16:57.692Z,12.97
2019-03-21T16:19:28.732Z,13.77
2019-03-21T16:21:59.775Z,13.43
2019-03-21T16:24:30.927Z,13.20
2019-03-21T16:27:02.215Z,12.43
2019-03-21T16:29:33.137Z,14.17
2019-03-21T16:32:04.333Z,14.60
2019-03-21T16:34:35.363Z,14.23
2019-03-21T16:37:06.214Z,12.27
2019-03-21T16:39:37.062Z,13.63
2019-03-21T16:42:08.028Z,13.80
2019-03-21T16:44:38.874Z,14.87
2019-03-21T16:47:10.191Z,16.30
2019-03-21T16:49:41.222Z,14.87
2019-03-21T16:52:12.268Z,15.47
2019-03-21T16:54:43.322Z,15.50
2019-03-21T16:57:14.290Z,14.93
2019-03-21T16:59:45.231Z,15.03
2019-03-21T17:02:16.397Z,13.93
2019-03-21T17:04:47.243Z,13.70
2019-03-21T17:07:18.061Z,14.83
2019-03-21T17:09:49.215Z,14.93
2019-03-21T17:12:20.283Z,14.20
2019-03-21T17:14:51.116Z,14.17
2019-03-21T17:17:22.355Z,13.47
2019-03-21T17:19:53.397Z,12.37
2019-03-21T17:22:24.666Z,13.07
2019-03-21T17:24:55.585Z,12.30
2019-03-21T17:27:26.468Z,12.67
2019-03-21T17:29:57.841Z,11.87
2019-03-21T17:32:28.699Z,13.73
2019-03-21T17:34:59.779Z,12.00
2019-03-21T17:37:30.707Z,12.87
2019-03-21T17:40:01.810Z,13.17
2019-03-21T17:42:32.795Z,14.60
2019-03-21T17:45:04.401Z,11.93
2019-03-21T17:47:35.328Z,13.73
2019-03-21T17:50:07.081Z,14.17
2019-03-21T17:52:38.199Z,15.37
2019-03-21T17:55:09.549Z,15.70
2019-03-21T17:57:40.373Z,16.20
2019-03-21T18:00:16.182Z,14.30
2019-03-21T18:02:47.414Z,15.07
2019-03-21T18:05:18.235Z,15.57
2019-03-21T18:07:49.087Z,14.63
2019-03-21T18:10:30.741Z,16.37
2019-03-21T18:13:02.504Z,16.20
2019-03-21T18:15:33.433Z,13.87
2019-03-21T18:18:04.752Z,15.83
2019-03-21T18:20:36.318Z,14.23
2019-03-21T18:23:07.292Z,15.43
2019-03-21T18:25:38.213Z,15.77
2019-03-21T18:28:09.102Z,14.10
2019-03-21T18:30:40.311Z,13.77
2019-03-21T18:33:11.154Z,14.43
2019-03-21T18:35:42.007Z,15.47
2019-03-21T18:38:13.310Z,15.23
2019-03-21T18:40:44.415Z,15.67
2019-03-21T18:43:15.275Z,15.50
2019-03-21T18:45:46.560Z,14.67
2019-03-21T18:48:17.799Z,15.50
2019-03-21T18:50:48.586Z,18.33
2019-03-21T18:53:19.590Z,20.27
2019-03-21T18:55:50.666Z,20.40
2019-03-21T18:58:21.859Z,24.27
2019-03-21T19:00:52.991Z,36.70
2019-03-21T19:03:24.887Z,29.77
2019-03-21T19:05:55.845Z,27.10
2019-03-21T19:08:27.067Z,24.63
2019-03-21T19:10:58.228Z,23.97
2019-03-21T19:13:29.354Z,22.53
2019-03-21T19:16:00.600Z,23.93
2019-03-21T19:18:31.425Z,22.43
2019-03-21T19:21:02.335Z,21.50
2019-03-21T19:23:33.642Z,20.63
2019-03-21T19:26:04.784Z,20.50
2019-03-21T19:28:35.914Z,19.43
2019-03-21T19:31:06.889Z,18.63
2019-03-21T19:33:38.093Z,17.57
2019-03-21T19:36:09.051Z,20.20
2019-03-21T19:38:39.851Z,19.73
2019-03-21T19:41:10.926Z,18.50
2019-03-21T19:43:42.022Z,17.43
2019-03-21T19:46:12.865Z,15.90
2019-03-21T19:48:50.117Z,18.47
2019-03-21T19:51:16.615Z,18.33
2019-03-21T19:53:47.626Z,19.57
2019-03-21T19:56:18.713Z,19.00
2019-03-21T19:58:49.950Z,19.83
2019-03-21T20:01:21.026Z,16.93
2019-03-21T20:03:52.349Z,16.50
2019-03-21T20:06:23.351Z,16.70
2019-03-21T20:08:56.758Z,16.77
2019-03-21T20:11:27.142Z,17.67
2019-03-21T20:13:58.199Z,18.03
2019-03-21T20:16:29.298Z,22.43
2019-03-21T20:19:00.601Z,27.03
2019-03-21T20:21:32.066Z,28.33
2019-03-21T20:24:03.068Z,27.67
2019-03-21T20:26:34.409Z,27.10
2019-03-21T20:29:05.939Z,26.80
2019-03-21T20:31:37.038Z,27.63
2019-03-21T20:34:07.964Z,27.27
2019-03-21T20:36:38.810Z,26.30
2019-03-21T20:39:11.543Z,27.73
2019-03-21T20:41:42.918Z,29.60
2019-03-21T20:44:15.328Z,27.80
2019-03-21T20:46:46.697Z,27.97
2019-03-21T20:49:17.863Z,25.57
2019-03-21T20:51:48.817Z,24.17
2019-03-21T20:54:19.936Z,23.70
2019-03-21T20:56:52.075Z,26.07
2019-03-21T20:59:22.979Z,23.73
2019-03-21T21:02:02.537Z,25.07
2019-03-21T21:04:26.776Z,25.93
2019-03-21T21:06:57.698Z,25.33
2019-03-21T21:09:29.079Z,24.33
2019-03-21T21:11:59.995Z,25.93
2019-03-21T21:14:31.083Z,25.47
2019-03-21T21:17:02.238Z,24.10
2019-03-21T21:19:33.107Z,25.97
2019-03-21T21:22:04.004Z,22.97
2019-03-21T21:24:35.094Z,24.10
2019-03-21T21:27:06.197Z,22.83
2019-03-21T21:29:37.217Z,25.23
2019-03-21T21:32:08.215Z,25.13
2019-03-21T21:34:39.320Z,24.27
2019-03-21T21:37:10.474Z,23.80
2019-03-21T21:39:41.392Z,23.20
2019-03-21T21:42:12.699Z,24.43
2019-03-21T21:44:43.802Z,23.70
2019-03-21T21:47:14.754Z,23.17
2019-03-21T21:49:45.654Z,23.87
2019-03-21T21:52:17.064Z,22.10
2019-03-21T21:54:49.309Z,21.63
2019-03-21T21:57:21.302Z,23.37
2019-03-21T21:59:53.094Z,22.17
2019-03-21T22:02:24.058Z,24.27
2019-03-21T22:04:54.929Z,22.87
2019-03-21T22:07:26.147Z,23.47
2019-03-21T22:09:57.228Z,22.73
2019-03-21T22:12:28.054Z,22.47
2019-03-21T22:14:59.360Z,21.80
2019-03-21T22:17:30.523Z,22.27
2019-03-21T22:20:01.367Z,21.43
2019-03-21T22:22:32.449Z,22.57
2019-03-21T22:25:03.691Z,23.00
2019-03-21T22:27:34.754Z,23.30
2019-03-21T22:30:06.822Z,23.83
2019-03-21T22:32:37.735Z,23.30
2019-03-21T22:35:09.077Z,24.37
2019-03-21T22:37:39.889Z,26.63
2019-03-21T22:40:11.048Z,27.53
2019-03-21T22:42:42.122Z,26.20
2019-03-21T22:45:14.146Z,25.57
2019-03-21T22:47:45.166Z,23.87
2019-03-21T22:50:17.069Z,22.77
2019-03-21T22:52:48.331Z,24.90
2019-03-21T22:55:19.170Z,24.13
2019-03-21T22:57:50.012Z,22.43
2019-03-21T23:00:22.418Z,22.70
2019-03-21T23:02:54.910Z,23.97
2019-03-21T23:05:25.870Z,23.70
2019-03-21T23:07:57.107Z,21.67
2019-03-21T23:10:28.495Z,22.83
2019-03-21T23:12:59.471Z,24.50
2019-03-21T23:15:30.536Z,24.83
2019-03-21T23:18:01.354Z,26.83
2019-03-21T23:20:32.701Z,27.00
2019-03-21T23:23:03.940Z,27.20
2019-03-21T23:25:34.867Z,26.67
2019-03-21T23:28:06.338Z,24.53
2019-03-21T23:30:37.606Z,25.67
2019-03-21T23:33:08.486Z,23.63
2019-03-21T23:35:39.425Z,24.43
2019-03-21T23:38:10.519Z,24.47
2019-03-21T23:40:41.722Z,22.77
2019-03-21T23:43:13.793Z,22.50
2019-03-21T23:45:45.071Z,24.20
2019-03-21T23:48:16.232Z,25.87
2019-03-21T23:50:47.661Z,25.97
2019-03-21T23:53:18.596Z,27.90
2019-03-21T23:55:49.704Z,26.87
2019-03-21T23:58:20.838Z,29.77
